createdAt,value
2022-10-05T00:01:22.527Z,6.00
2022-10-05T00:11:22.812Z,5.50
2022-10-05T00:21:22.487Z,6.30
2022-10-05T00:31:22.715Z,5.90
2022-10-05T00:41:22.446Z,6.70
2022-10-05T00:51:22.409Z,6.10
2022-10-05T01:01:22.620Z,6.00
2022-10-05T01:11:22.347Z,5.70
2022-10-05T01:21:22.315Z,6.50
2022-10-05T01:31:22.464Z,6.10
2022-10-05T01:41:22.242Z,6.10
2022-10-05T01:51:22.171Z,5.80
2022-10-05T02:01:22.150Z,6.60
2022-10-05T02:11:22.045Z,6.40
2022-10-05T02:21:22.019Z,6.40
2022-10-05T02:31:22.151Z,6.00
2022-10-05T02:41:21.850Z,6.30
2022-10-05T02:51:21.807Z,6.20
2022-10-05T03:01:21.774Z,6.10
2022-10-05T03:11:21.820Z,6.40
2022-10-05T03:21:21.526Z,6.50
2022-10-05T03:31:21.533Z,6.60
2022-10-05T03:41:21.349Z,6.10
2022-10-05T03:51:21.022Z,6.90
2022-10-05T04:01:21.075Z,6.70
2022-10-05T04:11:20.654Z,6.40
2022-10-05T04:21:23.462Z,6.70
2022-10-05T04:31:20.456Z,7.20
2022-10-05T04:41:20.290Z,6.90
2022-10-05T04:51:20.081Z,6.70
2022-10-05T05:01:19.862Z,7.60
2022-10-05T05:11:24.810Z,7.10
2022-10-05T05:21:24.107Z,7.40
2022-10-05T05:31:23.768Z,7.10
2022-10-05T05:41:23.384Z,7.40
2022-10-05T05:51:23.166Z,7.40
2022-10-05T06:01:32.503Z,7.10
2022-10-05T06:11:22.391Z,6.60
2022-10-05T06:21:21.874Z,6.70
2022-10-05T06:31:21.543Z,6.60
2022-10-05T06:41:21.293Z,7.40
2022-10-05T06:51:20.739Z,7.20
2022-10-05T07:01:20.620Z,6.90
2022-10-05T07:11:19.995Z,7.10
2022-10-05T07:21:19.600Z,7.30
2022-10-05T07:31:19.304Z,6.60
2022-10-05T07:41:18.842Z,6.80
2022-10-05T07:51:18.463Z,6.70
2022-10-05T08:01:18.227Z,7.30
2022-10-05T08:11:17.721Z,6.70
2022-10-05T08:21:17.334Z,7.00
2022-10-05T08:31:17.035Z,6.80
2022-10-05T08:41:16.954Z,5.60
2022-10-05T08:51:16.751Z,5.80
2022-10-05T09:01:16.677Z,5.60
2022-10-05T09:11:16.750Z,5.80
2022-10-05T09:21:16.694Z,6.40
2022-10-05T09:31:16.568Z,5.80
2022-10-05T09:41:16.633Z,5.40
2022-10-05T09:51:16.537Z,5.70
2022-10-05T10:01:32.406Z,5.60
2022-10-05T10:11:16.697Z,5.50
2022-10-05T10:21:16.808Z,5.80
2022-10-05T10:31:17.142Z,5.30
2022-10-05T10:41:17.188Z,5.30
2022-10-05T10:51:22.318Z,5.10
2022-10-05T11:01:21.825Z,4.90
2022-10-05T11:11:21.572Z,5.10
2022-10-05T11:21:21.038Z,5.20
2022-10-05T11:31:20.780Z,5.30
2022-10-05T11:41:20.300Z,4.60
2022-10-05T11:51:20.752Z,5.20
2022-10-05T12:01:19.563Z,5.60
2022-10-05T12:11:19.192Z,5.10
2022-10-05T12:21:24.332Z,4.80
2022-10-05T12:31:24.018Z,4.70
2022-10-05T12:41:23.596Z,4.60
2022-10-05T12:51:23.227Z,4.60
2022-10-05T13:01:22.846Z,4.60
2022-10-05T13:11:22.490Z,4.70
2022-10-05T13:21:22.589Z,4.90
2022-10-05T13:31:27.639Z,5.10
2022-10-05T13:41:27.223Z,4.20
2022-10-05T13:51:26.857Z,4.50
2022-10-05T14:01:26.611Z,4.30
2022-10-05T14:11:26.270Z,4.70
2022-10-05T14:21:25.804Z,4.90
2022-10-05T14:31:32.597Z,4.90
2022-10-05T14:41:30.561Z,4.50
2022-10-05T14:51:30.195Z,4.70
2022-10-05T15:01:29.861Z,4.50
2022-10-05T15:11:29.613Z,4.60
2022-10-05T15:21:36.488Z,4.50
2022-10-05T15:31:34.225Z,3.90
2022-10-05T15:41:33.855Z,4.30
2022-10-05T15:51:33.474Z,4.40
2022-10-05T16:01:33.286Z,4.30
2022-10-05T16:11:32.799Z,4.50
2022-10-05T16:21:37.950Z,4.60
2022-10-05T16:31:37.588Z,4.70
2022-10-05T16:41:37.206Z,4.80
2022-10-05T16:51:36.830Z,5.00
2022-10-05T17:01:36.500Z,5.00
2022-10-05T17:11:36.214Z,4.80
2022-10-05T17:21:41.348Z,4.80
2022-10-05T17:31:40.978Z,5.20
2022-10-05T17:41:40.776Z,5.50
2022-10-05T17:51:40.398Z,4.80
2022-10-05T18:01:40.098Z,4.60
2022-10-05T18:11:39.677Z,4.80
2022-10-05T18:21:39.618Z,5.50
2022-10-05T18:31:44.767Z,5.20
2022-10-05T18:41:44.401Z,4.80
2022-10-05T18:51:46.354Z,5.20
2022-10-05T19:01:43.873Z,4.90
2022-10-05T19:11:43.597Z,4.40
2022-10-05T19:21:42.924Z,4.90
2022-10-05T19:31:42.567Z,4.60
2022-10-05T19:41:42.771Z,4.80
2022-10-05T19:51:47.913Z,4.60
2022-10-05T20:01:47.416Z,4.60
2022-10-05T20:11:47.001Z,4.20
2022-10-05T20:21:46.620Z,4.20
2022-10-05T20:31:46.333Z,4.50
2022-10-05T20:41:45.864Z,4.20
2022-10-05T20:51:45.649Z,3.90
2022-10-05T21:01:50.620Z,4.40
2022-10-05T21:11:51.877Z,4.30
2022-10-05T21:21:50.251Z,4.40
2022-10-05T21:31:49.690Z,4.20
2022-10-05T21:41:49.713Z,4.30
2022-10-05T21:51:48.906Z,4.00
2022-10-05T22:01:48.688Z,4.20
2022-10-05T22:11:48.549Z,4.30
2022-10-05T22:21:53.522Z,4.40
2022-10-05T22:31:53.162Z,3.20
2022-10-05T22:41:52.775Z,3.30
2022-10-05T22:51:52.524Z,2.90
2022-10-05T23:01:52.296Z,2.90
2022-10-05T23:11:51.812Z,2.60
2022-10-05T23:21:51.430Z,2.90
2022-10-05T23:31:51.012Z,2.70
2022-10-05T23:41:50.501Z,2.30
2022-10-05T23:51:50.524Z,2.80
